Time;durP1;ratioP1;P1;durP2;ratioP2;P2;SDS_P1;SDS_P2;PMS_P1;PMS_P2;Temp;Humidity;BMP_temperature;BMP_pressure;BME280_temperature;BME280_humidity;BME280_pressure;Samples;Min_cycle;Max_cycle;Signal;HPM_P1;HPM_P2
2022/03/03 00:02:13;;;;;;;2.60;2.40;;;0.40;65.30;-0.60;98521.00;;;;5114310;28;20214;-75
2022/03/03 00:04:40;;;;;;;2.53;1.70;;;0.30;65.30;-0.60;98529.00;;;;5114407;28;20305;-75
2022/03/03 00:07:09;;;;;;;2.40;2.23;;;0.30;65.70;-0.60;98529.00;;;;5114372;28;20232;-75
2022/03/03 00:09:35;;;;;;;1.23;1.20;;;0.30;66.00;-0.60;98525.00;;;;5114355;28;20367;-74
2022/03/03 00:12:02;;;;;;;3.20;2.93;;;0.30;66.10;-0.60;98535.00;;;;5114415;28;20206;-75
2022/03/03 00:14:29;;;;;;;2.80;1.90;;;0.30;65.80;-0.80;98524.00;;;;5096461;28;20285;-75
2022/03/03 00:16:57;;;;;;;2.10;2.00;;;0.30;65.20;-0.70;98539.00;;;;5114222;28;20198;-75
2022/03/03 00:19:25;;;;;;;4.70;2.67;;;0.20;65.60;-0.80;98529.00;;;;5114047;28;20308;-75
2022/03/03 00:21:51;;;;;;;2.60;2.40;;;0.20;65.70;-0.60;98531.00;;;;5114167;28;20317;-75
2022/03/03 00:24:20;;;;;;;4.93;4.00;;;0.30;66.40;-0.60;98526.00;;;;5114027;28;20206;-76
2022/03/03 00:26:47;;;;;;;4.20;3.37;;;0.20;65.50;-0.80;98528.00;;;;5114047;28;20747;-75
2022/03/03 00:29:13;;;;;;;4.40;3.87;;;0.20;65.70;-0.80;98523.00;;;;5114212;28;20229;-75
2022/03/03 00:31:40;;;;;;;2.87;2.67;;;0.20;65.70;-0.80;98530.00;;;;5117751;28;20221;-75
2022/03/03 00:34:07;;;;;;;3.70;2.60;;;0.10;66.00;-0.80;98528.00;;;;5117796;28;20276;-76
2022/03/03 00:36:34;;;;;;;2.43;2.30;;;0.10;66.40;-0.80;98509.00;;;;5117659;28;20206;-75
2022/03/03 00:39:01;;;;;;;2.40;2.20;;;0.10;66.20;-0.80;98531.00;;;;5099610;28;20222;-74
2022/03/03 00:41:27;;;;;;;3.47;3.07;;;0.10;66.20;-1.00;98530.00;;;;5117498;28;20232;-75
2022/03/03 00:43:54;;;;;;;11.87;2.07;;;0.00;66.10;-1.00;98524.00;;;;5117668;28;20194;-75
2022/03/03 00:46:20;;;;;;;2.17;2.07;;;0.00;66.70;-0.90;98522.00;;;;5117391;28;20297;-76
2022/03/03 00:48:47;;;;;;;3.50;3.30;;;0.00;66.60;-1.00;98531.00;;;;5117509;28;20241;-75
2022/03/03 00:51:13;;;;;;;1.70;1.60;;;0.00;67.00;-1.10;98516.00;;;;5099516;28;20296;-75
2022/03/03 00:53:40;;;;;;;2.50;2.27;;;-0.10;67.10;-1.00;98523.00;;;;5117498;28;20518;-75
2022/03/03 00:56:07;;;;;;;1.17;1.17;;;0.00;67.60;-0.90;98527.00;;;;5117306;28;20194;-75
2022/03/03 00:58:36;;;;;;;1.83;1.73;;;0.00;67.90;-0.80;98536.00;;;;5117291;28;20221;-75
2022/03/03 01:01:04;;;;;;;2.90;1.43;;;0.10;67.60;-0.80;98543.00;;;;5117028;28;20225;-75
2022/03/03 01:03:31;;;;;;;8.77;3.13;;;0.10;67.80;-0.80;98540.00;;;;5117185;28;20198;-75
2022/03/03 01:05:57;;;;;;;2.30;2.07;;;0.10;67.50;-0.90;98546.00;;;;5117181;28;20270;-75
2022/03/03 01:08:24;;;;;;;1.93;1.83;;;0.00;67.10;-1.00;98559.00;;;;5117127;28;20222;-75
2022/03/03 01:10:51;;;;;;;3.30;2.53;;;0.00;66.90;-0.90;98536.00;;;;5117024;28;20216;-75
2022/03/03 01:13:20;;;;;;;1.37;1.33;;;0.00;66.70;-1.10;98542.00;;;;5117154;28;20698;-75
2022/03/03 01:15:46;;;;;;;2.33;2.13;;;-0.10;66.20;-1.30;98520.00;;;;5116973;28;20230;-75
2022/03/03 01:18:13;;;;;;;1.60;1.50;;;-0.20;66.40;-1.30;98524.00;;;;5117011;28;20208;-75
2022/03/03 01:20:39;;;;;;;2.50;2.30;;;-0.30;67.20;-1.20;98529.00;;;;5117083;28;20325;-76
2022/03/03 01:23:06;;;;;;;2.33;2.13;;;-0.30;67.90;-1.10;98508.00;;;;5116942;28;20190;-75
2022/03/03 01:25:33;;;;;;;2.20;2.00;;;-0.20;68.00;-1.10;98508.00;;;;5117125;28;20194;-76
2022/03/03 01:28:00;;;;;;;2.73;2.53;;;-0.20;67.80;-1.20;98497.00;;;;5116751;28;20220;-76
2022/03/03 01:30:27;;;;;;;3.20;1.83;;;-0.20;67.90;-1.40;98488.00;;;;5116790;28;20209;-76
2022/03/03 01:32:53;;;;;;;2.10;1.63;;;-0.30;68.00;-1.50;98489.00;;;;5098928;28;20590;-76
2022/03/03 01:35:20;;;;;;;3.53;1.37;;;-0.40;68.40;-1.40;98483.00;;;;5116656;28;20281;-76
2022/03/03 01:37:46;;;;;;;1.90;1.80;;;-0.40;68.60;-1.20;98491.00;;;;5116643;28;20258;-76
2022/03/03 01:40:13;;;;;;;2.50;2.40;;;-0.30;68.90;-1.40;98499.00;;;;5116461;28;20228;-76
2022/03/03 01:42:40;;;;;;;2.23;1.73;;;-0.40;67.70;-1.30;98502.00;;;;5115392;28;20213;-75
2022/03/03 01:45:09;;;;;;;2.43;2.20;;;-0.30;67.80;-1.30;98500.00;;;;5116543;28;20194;-75
2022/03/03 01:47:36;;;;;;;2.13;2.03;;;-0.40;67.60;-1.30;98493.00;;;;5116368;28;20276;-76
2022/03/03 01:50:04;;;;;;;1.97;1.83;;;-0.40;67.20;-1.30;98507.00;;;;5116480;28;20674;-76
2022/03/03 01:52:30;;;;;;;1.27;1.27;;;-0.40;67.50;-1.30;98496.00;;;;5116469;28;20237;-76
2022/03/03 01:54:57;;;;;;;1.87;1.77;;;-0.30;67.70;-1.30;98487.00;;;;5116282;28;20221;-76
2022/03/03 01:57:23;;;;;;;2.60;2.40;;;-0.40;67.30;-1.40;98486.00;;;;5098465;28;20582;-75
2022/03/03 01:59:50;;;;;;;5.10;2.87;;;-0.40;67.40;-1.30;98491.00;;;;5116261;28;20518;-75
2022/03/03 02:02:17;;;;;;;16.93;2.50;;;-0.40;67.70;-1.40;98496.00;;;;5116310;28;20585;-75
2022/03/03 02:04:44;;;;;;;2.07;1.97;;;-0.40;68.10;-1.30;98506.00;;;;5116269;28;20197;-75
2022/03/03 02:07:11;;;;;;;2.10;2.00;;;-0.40;68.80;-1.30;98496.00;;;;5098445;28;20198;-76
2022/03/03 02:09:40;;;;;;;2.30;2.17;;;-0.40;68.40;-1.40;98503.00;;;;5116163;28;20193;-76
2022/03/03 02:12:09;;;;;;;2.10;2.00;;;-0.40;68.20;-1.60;98500.00;;;;5116238;28;20205;-76
2022/03/03 02:14:43;;;;;;;2.27;2.07;;;-0.50;67.70;-1.50;98498.00;;;;5115912;28;20331;-76
2022/03/03 02:17:10;;;;;;;3.47;2.30;;;-0.50;68.40;-1.50;98487.00;;;;5117714;28;20254;-76
2022/03/03 02:19:37;;;;;;;1.10;1.10;;;-0.50;68.80;-1.60;98497.00;;;;5118257;28;20238;-76
2022/03/03 02:22:08;;;;;;;2.50;2.27;;;-0.60;68.90;-1.60;98490.00;;;;5116464;28;20304;-76
2022/03/03 02:24:35;;;;;;;2.63;2.47;;;-0.60;69.10;-1.50;98491.00;;;;5116162;28;20257;-76
2022/03/03 02:27:03;;;;;;;2.17;1.93;;;-0.60;69.40;-1.70;98487.00;;;;5116451;28;20700;-76
2022/03/03 02:29:31;;;;;;;1.87;1.70;;;-0.70;69.20;-1.40;98499.00;;;;5118192;28;20212;-76
2022/03/03 02:32:00;;;;;;;1.13;1.13;;;-0.60;70.50;-1.30;98492.00;;;;5118497;28;20213;-76
2022/03/03 02:34:26;;;;;;;1.47;1.40;;;-0.50;69.90;-1.60;98490.00;;;;5116226;28;20660;-76
2022/03/03 02:36:55;;;;;;;2.60;2.00;;;-0.50;68.60;-1.70;98494.00;;;;5115890;28;20605;-76
2022/03/03 02:39:22;;;;;;;3.17;2.97;;;-0.60;68.40;-1.70;98488.00;;;;5115601;28;20232;-76
2022/03/03 02:41:49;;;;;;;6.83;2.83;;;-0.60;68.80;-1.80;98484.00;;;;5115613;28;20221;-76
2022/03/03 02:44:15;;;;;;;1.80;1.70;;;-0.70;69.20;-1.60;98485.00;;;;5115802;28;20339;-76
2022/03/03 02:46:42;;;;;;;1.87;1.77;;;-0.70;69.50;-1.50;98494.00;;;;5097833;28;20205;-76
2022/03/03 02:49:09;;;;;;;3.43;2.60;;;-0.60;69.60;-1.40;98495.00;;;;5115868;28;20684;-76
2022/03/03 02:51:36;;;;;;;5.33;2.77;;;-0.50;69.50;-1.40;98499.00;;;;5115935;28;20208;-76
2022/03/03 02:54:03;;;;;;;2.17;2.07;;;-0.50;69.10;-1.40;98489.00;;;;5115147;28;20197;-76
2022/03/03 02:56:31;;;;;;;3.77;3.47;;;-0.50;68.80;-1.50;98482.00;;;;5115406;28;20227;-76
2022/03/03 02:58:57;;;;;;;2.93;2.73;;;-0.50;69.00;-1.60;98481.00;;;;5115461;28;20253;-76
2022/03/03 03:01:23;;;;;;;3.90;2.00;;;-0.60;68.70;-1.60;98440.00;;;;5115251;28;20746;-76
2022/03/03 03:03:50;;;;;;;3.73;2.77;;;-0.60;69.00;-1.70;98471.00;;;;5097378;28;20228;-75
2022/03/03 03:06:16;;;;;;;6.10;2.63;;;-0.70;69.20;-1.60;98477.00;;;;5115259;28;20198;-75
2022/03/03 03:08:43;;;;;;;3.20;2.90;;;-0.70;69.50;-1.50;98458.00;;;;5115136;28;20245;-76
2022/03/03 03:11:09;;;;;;;2.10;2.00;;;-0.60;69.10;-1.60;98462.00;;;;5115142;28;20635;-76
2022/03/03 03:13:37;;;;;;;6.73;2.20;;;-0.60;68.70;-1.70;98470.00;;;;5115168;28;20588;-76
2022/03/03 03:16:04;;;;;;;2.87;2.67;;;-0.70;68.20;-1.70;98471.00;;;;5115197;28;20277;-76
2022/03/03 03:18:31;;;;;;;8.80;2.67;;;-0.70;68.50;-1.90;98460.00;;;;5115057;28;20194;-76
2022/03/03 03:20:57;;;;;;;2.60;2.40;;;-0.80;68.20;-1.80;98467.00;;;;5114938;28;20249;-76
2022/03/03 03:23:24;;;;;;;2.80;1.97;;;-0.90;69.10;-1.70;98468.00;;;;5114946;28;20216;-75
2022/03/03 03:25:55;;;;;;;3.03;2.83;;;-0.80;69.10;-1.70;98461.00;;;;5114974;28;20274;-76
2022/03/03 03:28:21;;;;;;;2.10;2.00;;;-0.80;68.90;-1.60;98445.00;;;;5114903;28;20248;-76
2022/03/03 03:30:49;;;;;;;1.37;1.37;;;-0.80;68.60;-1.80;98442.00;;;;5115006;28;20520;-75
2022/03/03 03:33:17;;;;;;;2.00;1.90;;;-0.80;68.20;-1.80;98434.00;;;;5115032;28;20208;-77
2022/03/03 03:35:46;;;;;;;1.83;1.73;;;-0.80;68.50;-1.70;98436.00;;;;5114830;28;20198;-77
2022/03/03 03:38:13;;;;;;;1.93;1.83;;;-0.80;68.60;-1.80;98434.00;;;;5096986;28;20287;-77
2022/03/03 03:40:42;;;;;;;1.53;1.53;;;-0.80;67.80;-2.00;98434.00;;;;5114543;28;20229;-77
2022/03/03 03:43:09;;;;;;;2.63;2.40;;;-1.00;67.80;-1.90;98429.00;;;;5097070;28;20308;-77
2022/03/03 03:45:35;;;;;;;3.43;2.33;;;-1.00;68.70;-2.00;98430.00;;;;5114782;28;20208;-78
2022/03/03 03:48:05;;;;;;;2.53;2.40;;;-1.00;68.40;-2.10;98431.00;;;;5114700;28;20297;-76
2022/03/03 03:50:32;;;;;;;1.90;1.80;;;-1.10;68.60;-2.10;98417.00;;;;5096967;28;20278;-77
2022/03/03 03:52:58;;;;;;;2.50;2.30;;;-1.10;68.80;-2.10;98411.00;;;;5114762;28;20276;-77
2022/03/03 03:55:25;;;;;;;2.10;1.97;;;-1.20;68.90;-2.10;98423.00;;;;5114549;28;20624;-76
2022/03/03 03:57:52;;;;;;;2.40;2.20;;;-1.10;69.00;-2.10;98393.00;;;;5114651;28;20199;-76
2022/03/03 04:00:19;;;;;;;3.03;2.83;;;-1.10;69.20;-2.00;98422.00;;;;5114536;28;20224;-76
2022/03/03 04:02:46;;;;;;;1.90;1.80;;;-1.10;69.20;-2.00;98426.00;;;;5096804;28;20270;-76
2022/03/03 04:05:15;;;;;;;2.73;1.50;;;-1.10;69.30;-2.10;98407.00;;;;5113774;28;20234;-76
2022/03/03 04:07:42;;;;;;;2.13;2.03;;;-1.20;68.80;-2.20;98413.00;;;;5114638;28;20213;-76
2022/03/03 04:10:11;;;;;;;3.23;2.77;;;-1.20;68.70;-2.20;98417.00;;;;5115161;28;20635;-75
2022/03/03 04:12:38;;;;;;;2.17;2.07;;;-1.20;69.20;-2.20;98415.00;;;;5114914;28;20278;-76
2022/03/03 04:15:06;;;;;;;6.77;3.40;;;-1.20;69.50;-2.10;98415.00;;;;5114489;28;20539;-75
2022/03/03 04:17:32;;;;;;;2.73;1.93;;;-1.20;69.70;-2.10;98413.00;;;;5114313;28;20205;-76
2022/03/03 04:19:59;;;;;;;1.53;1.53;;;-1.10;69.60;-2.20;98417.00;;;;5114203;28;20481;-75
2022/03/03 04:22:26;;;;;;;1.87;1.70;;;-1.20;69.20;-2.10;98411.00;;;;5114207;28;20207;-75
2022/03/03 04:24:53;;;;;;;2.17;2.07;;;-1.20;69.10;-2.20;98419.00;;;;5114237;28;20197;-75
2022/03/03 04:27:20;;;;;;;2.17;1.80;;;-1.20;68.80;-2.30;98417.00;;;;5113936;28;20310;-76
2022/03/03 04:29:47;;;;;;;1.87;1.77;;;-1.30;68.80;-2.40;98416.00;;;;5114102;28;20212;-75
2022/03/03 04:32:14;;;;;;;2.17;2.07;;;-1.40;68.70;-2.40;98415.00;;;;5114291;28;20217;-76
2022/03/03 04:34:43;;;;;;;2.43;2.20;;;-1.30;69.10;-2.30;98409.00;;;;5114114;28;20225;-75
2022/03/03 04:37:10;;;;;;;3.00;2.73;;;-1.40;69.40;-2.40;98403.00;;;;5114228;28;20200;-75
2022/03/03 04:39:37;;;;;;;2.70;2.50;;;-1.40;69.10;-2.40;98407.00;;;;5096159;28;20638;-75
2022/03/03 04:42:05;;;;;;;3.90;3.50;;;-1.40;69.30;-2.40;98402.00;;;;5113906;28;20296;-75
2022/03/03 04:44:32;;;;;;;1.93;1.83;;;-1.40;69.30;-2.30;98401.00;;;;5114003;28;20278;-75
2022/03/03 04:46:58;;;;;;;3.40;2.93;;;-1.40;69.60;-2.30;98401.00;;;;5113823;28;20356;-75
2022/03/03 04:49:25;;;;;;;1.07;1.07;;;-1.30;69.80;-2.10;98403.00;;;;5113850;28;20622;-76
2022/03/03 04:51:52;;;;;;;2.97;1.90;;;-1.30;70.00;-2.20;98396.00;;;;5095874;28;20217;-75
2022/03/03 04:54:21;;;;;;;1.73;1.63;;;-1.20;69.40;-2.30;98403.00;;;;5113746;28;20232;-75
2022/03/03 04:56:49;;;;;;;2.80;2.60;;;-1.30;68.70;-2.50;98410.00;;;;5114023;28;20227;-75
2022/03/03 04:59:15;;;;;;;3.20;3.00;;;-1.40;69.00;-2.40;98405.00;;;;5095658;28;20286;-75
2022/03/03 05:01:42;;;;;;;1.63;1.53;;;-1.40;69.90;-2.60;98396.00;;;;5113655;28;20248;-75
2022/03/03 05:04:08;;;;;;;3.50;1.67;;;-1.50;69.20;-2.80;98383.00;;;;5113700;28;20203;-75
2022/03/03 05:06:37;;;;;;;3.83;3.30;;;-1.60;69.30;-2.90;98383.00;;;;5113647;28;20206;-75
2022/03/03 05:09:06;;;;;;;3.40;1.80;;;-1.70;70.00;-2.80;98386.00;;;;5113605;28;20224;-75
2022/03/03 05:11:34;;;;;;;2.47;2.27;;;-1.60;70.50;-2.70;98389.00;;;;5095684;28;20210;-75
2022/03/03 05:14:01;;;;;;;2.80;2.60;;;-1.70;71.10;-2.50;98384.00;;;;5113433;28;20229;-75
2022/03/03 05:16:28;;;;;;;2.70;2.57;;;-1.50;71.60;-2.70;98373.00;;;;5097561;28;20304;-75
2022/03/03 05:18:55;;;;;;;1.67;1.57;;;-1.60;70.20;-2.70;98377.00;;;;5116949;28;20263;-75
2022/03/03 05:21:21;;;;;;;2.60;2.40;;;-1.60;71.80;-2.70;98369.00;;;;5116624;28;20620;-75
2022/03/03 05:23:50;;;;;;;2.00;1.90;;;-1.60;70.80;-2.70;98377.00;;;;5117061;28;20209;-75
2022/03/03 05:26:18;;;;;;;1.87;1.67;;;-1.70;71.10;-2.70;98377.00;;;;5116854;28;20200;-75
2022/03/03 05:28:45;;;;;;;4.23;2.27;;;-1.70;71.00;-2.50;98386.00;;;;5116799;28;20279;-75
2022/03/03 05:31:12;;;;;;;2.30;2.17;;;-1.60;70.90;-2.60;98380.00;;;;5116716;28;20211;-74
2022/03/03 05:33:40;;;;;;;3.93;1.57;;;-1.60;70.10;-2.80;98384.00;;;;5116623;28;20636;-75
2022/03/03 05:36:10;;;;;;;2.27;2.07;;;-1.60;69.40;-2.90;98387.00;;;;5116840;28;20309;-75
2022/03/03 05:38:37;;;;;;;3.07;2.80;;;-1.80;70.20;-2.80;98393.00;;;;5116684;28;20221;-75
2022/03/03 05:41:05;;;;;;;3.33;3.00;;;-1.80;70.60;-2.80;98394.00;;;;5098481;28;20232;-75
2022/03/03 05:43:32;;;;;;;3.90;2.93;;;-1.80;70.50;-2.80;98353.00;;;;5098540;28;20577;-75
2022/03/03 05:45:59;;;;;;;2.83;2.47;;;-1.80;70.90;-2.90;98381.00;;;;5116648;28;20193;-75
2022/03/03 05:48:27;;;;;;;2.23;2.03;;;-1.80;71.50;-2.90;98382.00;;;;5117276;28;20686;-75
2022/03/03 05:50:55;;;;;;;2.47;2.27;;;-1.80;71.70;-2.80;98368.00;;;;5117499;28;20264;-75
2022/03/03 05:53:23;;;;;;;2.90;2.70;;;-1.80;72.20;-2.70;98368.00;;;;5100501;28;20394;-75
2022/03/03 05:55:53;;;;;;;2.17;2.03;;;-1.80;72.00;-2.80;98357.00;;;;5098657;28;20204;-74
2022/03/03 05:58:29;;;;;;;1.40;1.33;;;-1.80;72.10;-2.90;98378.00;;;;5098470;28;20205;-74
2022/03/03 06:00:59;;;;;;;6.50;4.50;;;-1.80;72.10;-2.80;98364.00;;;;5116881;28;20576;-75
2022/03/03 06:03:30;;;;;;;1.70;1.60;;;-1.80;72.40;-2.70;98361.00;;;;5117376;28;20193;-76
2022/03/03 06:06:05;;;;;;;1.93;1.83;;;-1.70;72.70;-2.60;98358.00;;;;5119464;28;20279;-74
2022/03/03 06:08:41;;;;;;;1.87;1.77;;;-1.60;72.60;-2.60;98362.00;;;;5116153;28;20204;-73
2022/03/03 06:11:14;;;;;;;2.27;2.10;;;-1.60;72.70;-2.40;98368.00;;;;5116081;28;20227;-74
2022/03/03 06:13:48;;;;;;;4.57;2.03;;;-1.60;73.10;-2.40;98364.00;;;;5116112;28;20245;-75
2022/03/03 06:16:18;;;;;;;1.93;1.83;;;-1.50;73.10;-2.50;98366.00;;;;5116077;28;20283;-74
2022/03/03 06:18:48;;;;;;;8.23;2.93;;;-1.50;73.10;-2.50;98367.00;;;;5116005;28;20217;-74
2022/03/03 06:21:15;;;;;;;1.47;1.43;;;-1.50;72.40;-2.40;98370.00;;;;5115899;28;20218;-74
2022/03/03 06:23:43;;;;;;;2.30;2.20;;;-1.40;72.40;-2.40;98367.00;;;;5116105;28;20275;-74
2022/03/03 06:26:15;;;;;;;2.00;1.90;;;-1.40;71.80;-2.40;98373.00;;;;5115852;28;20613;-75
2022/03/03 06:28:45;;;;;;;3.50;2.27;;;-1.40;71.50;-2.60;98364.00;;;;5097433;28;20524;-74
2022/03/03 06:31:13;;;;;;;5.33;2.50;;;-1.40;72.10;-2.40;98334.00;;;;5115645;28;20268;-74
2022/03/03 06:33:40;;;;;;;4.07;3.00;;;-1.40;73.10;-2.20;98362.00;;;;5097894;28;20235;-74
2022/03/03 06:36:08;;;;;;;1.73;1.63;;;-1.30;73.00;-2.10;98368.00;;;;5097818;28;20204;-75
2022/03/03 06:38:38;;;;;;;2.93;2.80;;;-1.20;72.50;-2.10;98363.00;;;;5115769;28;20209;-75
2022/03/03 06:41:05;;;;;;;2.20;2.00;;;-1.10;72.50;-2.10;98352.00;;;;5115640;28;20233;-75
2022/03/03 06:43:34;;;;;;;3.73;3.07;;;-1.10;72.50;-2.10;98338.00;;;;5115645;28;20226;-75
2022/03/03 06:46:00;;;;;;;1.60;1.50;;;-1.10;72.20;-2.30;98318.00;;;;5115569;28;20209;-74
2022/03/03 06:48:27;;;;;;;3.30;2.73;;;-1.10;72.10;-2.10;98319.00;;;;5115649;28;20582;-75
2022/03/03 06:50:56;;;;;;;1.83;1.53;;;-1.10;72.70;-1.90;98309.00;;;;5115557;28;20212;-75
2022/03/03 06:53:28;;;;;;;1.70;1.60;;;-1.00;72.00;-1.90;98299.00;;;;5115298;28;20251;-75
2022/03/03 06:56:03;;;;;;;2.60;1.70;;;-1.00;71.50;-1.90;98301.00;;;;5115328;28;20206;-74
2022/03/03 06:58:31;;;;;;;1.87;1.77;;;-1.00;71.20;-1.80;98302.00;;;;5115523;28;20196;-75
2022/03/03 07:01:02;;;;;;;3.57;3.27;;;-1.00;71.30;-1.80;98307.00;;;;5115312;28;20265;-75
2022/03/03 07:03:30;;;;;;;2.60;2.50;;;-0.90;71.20;-1.70;98300.00;;;;5115194;28;20203;-74
2022/03/03 07:05:57;;;;;;;3.17;2.90;;;-0.80;71.70;-1.70;98314.00;;;;5115352;28;20613;-75
2022/03/03 07:08:24;;;;;;;3.90;3.40;;;-0.70;71.70;-1.60;98320.00;;;;5115331;28;20632;-76
2022/03/03 07:10:51;;;;;;;3.20;2.93;;;-0.70;72.20;-1.50;98316.00;;;;5115409;28;20541;-75
2022/03/03 07:13:18;;;;;;;1.60;1.50;;;-0.60;71.50;-1.40;98328.00;;;;5115121;28;20308;-76
2022/03/03 07:15:52;;;;;;;4.03;3.33;;;-0.50;71.30;-1.50;98340.00;;;;5097234;28;20209;-76
2022/03/03 07:18:21;;;;;;;3.07;1.90;;;-0.50;71.00;-1.40;98339.00;;;;5097241;28;20244;-76
2022/03/03 07:21:00;;;;;;;3.83;2.67;;;-0.50;71.30;-1.20;98325.00;;;;5114761;28;20578;-76
2022/03/03 07:23:48;;;;;;;3.23;2.97;;;-0.40;71.20;-1.20;98324.00;;;;5114982;28;20551;-74
2022/03/03 07:26:17;;;;;;;6.07;4.53;;;-0.30;71.10;-1.20;98325.00;;;;5114889;28;20244;-77
2022/03/03 07:28:52;;;;;;;4.13;3.57;;;-0.20;71.30;-1.10;98333.00;;;;5114985;28;20212;-75
2022/03/03 07:31:23;;;;;;;3.17;2.87;;;-0.10;71.30;-0.90;98337.00;;;;5114962;28;20259;-74
2022/03/03 07:33:55;;;;;;;2.80;1.77;;;0.00;71.50;-0.80;98345.00;;;;5114676;28;20232;-74
2022/03/03 07:36:28;;;;;;;1.80;1.70;;;0.10;71.20;-0.80;98340.00;;;;5096972;28;20263;-71
2022/03/03 07:38:59;;;;;;;3.53;2.43;;;0.10;71.00;-0.80;98348.00;;;;5095833;28;20271;-72
2022/03/03 07:41:28;;;;;;;2.83;2.57;;;0.20;71.10;-0.70;98335.00;;;;5114617;28;20217;-71
2022/03/03 07:43:57;;;;;;;2.10;1.90;;;0.20;71.40;-0.60;98338.00;;;;5114593;28;20186;-70
2022/03/03 07:46:25;;;;;;;5.60;2.83;;;0.30;71.70;-0.40;98337.00;;;;5096472;28;20630;-73
2022/03/03 07:48:53;;;;;;;3.37;1.57;;;0.40;71.70;-0.40;98348.00;;;;5114538;28;20213;-70
2022/03/03 07:51:21;;;;;;;4.30;2.30;;;0.50;72.60;-0.30;98348.00;;;;5114552;28;20306;-70
2022/03/03 07:53:49;;;;;;;2.07;1.97;;;0.60;71.90;-0.20;98339.00;;;;5114752;28;20508;-72
2022/03/03 07:56:25;;;;;;;2.87;2.67;;;0.70;72.00;0.00;98339.00;;;;5114409;28;20216;-71
2022/03/03 07:59:02;;;;;;;2.07;1.87;;;0.80;72.10;0.10;98341.00;;;;5114354;28;20306;-70
2022/03/03 08:01:31;;;;;;;5.33;2.83;;;1.00;72.00;0.00;98348.00;;;;5114368;28;20296;-71
2022/03/03 08:04:00;;;;;;;4.53;2.40;;;1.00;71.90;0.20;98353.00;;;;5114371;28;20339;-70
2022/03/03 08:06:29;;;;;;;4.03;3.33;;;1.10;72.30;0.30;98336.00;;;;5096684;28;20282;-70
2022/03/03 08:09:00;;;;;;;5.30;2.87;;;1.20;72.40;0.40;98333.00;;;;5114359;28;20190;-72
2022/03/03 08:11:29;;;;;;;2.73;2.53;;;1.30;72.30;0.50;98318.00;;;;5114234;28;20299;-71
2022/03/03 08:13:56;;;;;;;8.03;2.87;;;1.40;72.30;0.60;98328.00;;;;5114352;28;20289;-71
2022/03/03 08:16:23;;;;;;;9.23;2.57;;;1.50;72.10;0.80;98331.00;;;;5096549;28;20646;-71
2022/03/03 08:18:56;;;;;;;2.83;2.23;;;1.60;71.80;0.90;98335.00;;;;5096504;28;20215;-71
2022/03/03 08:21:24;;;;;;;2.17;2.07;;;1.70;71.40;0.90;98331.00;;;;5114328;28;20219;-71
2022/03/03 08:23:54;;;;;;;2.00;1.90;;;1.80;71.00;1.00;98335.00;;;;5114103;28;20664;-72
2022/03/03 08:26:21;;;;;;;2.97;2.77;;;1.90;70.90;1.00;98328.00;;;;5114210;28;20186;-70
2022/03/03 08:28:48;;;;;;;2.13;1.97;;;2.00;70.50;1.20;98335.00;;;;5114187;28;20244;-70
2022/03/03 08:31:24;;;;;;;2.83;2.63;;;;;1.20;98334.00;;;;5114052;28;20239;-74
2022/03/03 08:33:54;;;;;;;1.67;1.57;;;2.10;68.80;1.40;98322.00;;;;5114300;28;20203;-73
2022/03/03 08:36:30;;;;;;;4.30;3.20;;;2.20;69.10;1.50;98328.00;;;;5114118;28;20361;-73
2022/03/03 08:39:04;;;;;;;1.97;1.87;;;2.40;68.70;1.60;98334.00;;;;5113971;28;20216;-72
2022/03/03 08:41:35;;;;;;;2.07;1.90;;;;;1.80;98331.00;;;;5114032;28;20704;-72
2022/03/03 08:44:05;;;;;;;2.07;1.97;;;2.60;66.80;2.00;98326.00;;;;5114074;28;20204;-73
2022/03/03 08:46:34;;;;;;;3.27;2.97;;;2.70;67.00;2.10;98329.00;;;;5114019;28;20194;-72
2022/03/03 08:49:05;;;;;;;3.87;2.30;;;2.90;65.80;2.20;98335.00;;;;5113899;28;20304;-72
2022/03/03 08:51:33;;;;;;;2.57;2.37;;;3.00;63.60;2.20;98317.00;;;;5116231;28;20221;-71
2022/03/03 08:53:59;;;;;;;3.83;3.37;;;3.10;63.20;2.40;98343.00;;;;5099506;28;20621;-72
2022/03/03 08:56:28;;;;;;;2.17;2.07;;;3.20;63.30;2.50;98335.00;;;;5117383;28;20228;-72
2022/03/03 08:58:55;;;;;;;4.23;3.83;;;3.30;62.70;2.60;98339.00;;;;5117482;28;20201;-72
2022/03/03 09:01:22;;;;;;;1.60;1.50;;;3.40;62.10;2.80;98306.00;;;;5117264;28;20244;-71
2022/03/03 09:03:49;;;;;;;2.00;1.90;;;3.50;61.60;2.80;98335.00;;;;5117439;28;20249;-72
2022/03/03 09:06:17;;;;;;;3.00;2.80;;;3.60;60.30;2.90;98343.00;;;;5117200;28;20652;-71
2022/03/03 09:08:44;;;;;;;1.90;1.80;;;3.70;61.50;3.00;98341.00;;;;5099348;28;20244;-71
2022/03/03 09:11:11;;;;;;;5.13;2.97;;;3.70;60.70;3.10;98338.00;;;;5117453;28;20196;-72
2022/03/03 09:13:41;;;;;;;2.70;2.47;;;3.90;60.10;3.20;98342.00;;;;5118092;28;20668;-72
2022/03/03 09:16:07;;;;;;;6.07;3.97;;;4.10;58.50;3.30;98345.00;;;;5119548;28;20598;-71
2022/03/03 09:18:37;;;;;;;3.40;3.10;;;4.10;57.50;3.40;98343.00;;;;5118172;28;20190;-71
2022/03/03 09:21:03;;;;;;;4.63;2.40;;;4.10;57.60;3.40;98337.00;;;;5117267;28;20253;-71
2022/03/03 09:23:30;;;;;;;4.53;2.87;;;4.20;57.30;3.40;98335.00;;;;5100025;28;20217;-71
2022/03/03 09:25:59;;;;;;;3.70;2.10;;;4.20;56.70;3.50;98348.00;;;;5119723;28;20222;-71
2022/03/03 09:28:27;;;;;;;5.40;3.73;;;4.30;56.70;3.60;98341.00;;;;5118165;28;20205;-70
2022/03/03 09:30:56;;;;;;;2.47;2.30;;;4.40;56.30;3.70;98350.00;;;;5117047;28;20657;-70
2022/03/03 09:33:23;;;;;;;1.80;1.70;;;4.50;55.80;3.70;98342.00;;;;5116579;28;20226;-71
2022/03/03 09:35:51;;;;;;;4.47;1.80;;;4.50;55.40;3.80;98353.00;;;;5098679;28;20538;-71
2022/03/03 09:38:18;;;;;;;2.20;2.00;;;4.60;54.60;3.90;98358.00;;;;5116568;28;20204;-70
2022/03/03 09:40:48;;;;;;;3.07;2.57;;;4.70;54.10;4.00;98354.00;;;;5116622;28;20217;-71
2022/03/03 09:43:17;;;;;;;4.93;2.10;;;4.80;54.20;4.00;98350.00;;;;5098587;28;20225;-71
2022/03/03 09:45:44;;;;;;;1.83;1.73;;;4.80;53.90;4.10;98345.00;;;;5116569;28;20362;-70
2022/03/03 09:48:14;;;;;;;4.93;1.97;;;4.90;54.20;4.20;98337.00;;;;5098682;28;20209;-69
2022/03/03 09:50:42;;;;;;;2.27;2.17;;;5.00;53.80;4.30;98337.00;;;;5116427;28;20194;-71
2022/03/03 09:53:13;;;;;;;2.00;1.83;;;5.20;53.00;4.50;98331.00;;;;5116497;28;20281;-70
2022/03/03 09:55:41;;;;;;;3.03;2.77;;;5.20;51.60;4.50;98332.00;;;;5116450;28;20194;-70
2022/03/03 09:58:08;;;;;;;3.27;2.77;;;5.30;51.10;4.80;98324.00;;;;5116217;28;20675;-70
2022/03/03 10:00:37;;;;;;;6.20;2.97;;;5.40;50.40;4.80;98330.00;;;;5116233;28;20296;-70
2022/03/03 10:03:09;;;;;;;1.90;1.80;;;5.50;50.00;4.80;98330.00;;;;5115074;28;20590;-70
2022/03/03 10:05:39;;;;;;;2.47;2.37;;;5.60;49.90;5.10;98333.00;;;;5116265;28;20514;-72
2022/03/03 10:08:09;;;;;;;2.30;2.20;;;5.80;49.80;5.10;98335.00;;;;5116335;28;20221;-71
2022/03/03 10:10:39;;;;;;;3.77;3.13;;;5.90;49.50;5.30;98334.00;;;;5116232;28;20210;-71
2022/03/03 10:13:09;;;;;;;4.13;2.57;;;6.00;48.90;5.40;98341.00;;;;5116294;28;20194;-71
2022/03/03 10:15:37;;;;;;;3.40;2.30;;;6.10;49.10;5.50;98326.00;;;;5116028;28;20213;-71
2022/03/03 10:18:11;;;;;;;2.73;2.53;;;6.20;47.10;5.40;98334.00;;;;5116167;28;20198;-71
2022/03/03 10:20:48;;;;;;;2.77;1.97;;;6.20;47.80;5.70;98313.00;;;;5115982;28;20656;-72
2022/03/03 10:23:20;;;;;;;3.60;1.90;;;6.30;47.70;5.80;98340.00;;;;5115894;28;20225;-71
2022/03/03 10:25:46;;;;;;;8.63;4.03;;;6.40;47.50;5.80;98338.00;;;;5116033;28;20273;-72
2022/03/03 10:28:17;;;;;;;1.90;1.80;;;6.60;46.20;5.80;98295.00;;;;5115938;28;20685;-71
2022/03/03 10:30:58;;;;;;;3.33;3.03;;;6.60;45.50;5.90;98325.00;;;;5097863;28;20196;-71
2022/03/03 10:33:27;;;;;;;2.33;2.13;;;6.60;45.50;6.00;98294.00;;;;5115795;28;20276;-69
2022/03/03 10:36:11;;;;;;;2.77;2.57;;;6.70;44.50;6.10;98325.00;;;;5115735;28;20680;-72
2022/03/03 10:38:49;;;;;;;2.60;2.43;;;6.90;44.80;6.20;98331.00;;;;5115799;28;20223;-72
2022/03/03 10:41:35;;;;;;;2.13;2.03;;;6.90;44.40;6.20;98325.00;;;;5097487;28;20671;-71
2022/03/03 10:44:06;;;;;;;11.37;3.03;;;6.90;44.30;6.10;98326.00;;;;5098090;28;20644;-70
2022/03/03 10:46:35;;;;;;;3.23;2.33;;;7.00;44.40;6.20;98327.00;;;;5115502;28;20201;-70
2022/03/03 10:49:20;;;;;;;5.83;2.40;;;7.00;44.80;6.70;98328.00;;;;5097668;28;20266;-70
2022/03/03 10:51:50;;;;;;;3.63;1.50;;;7.30;41.80;6.90;98317.00;;;;5097712;28;20212;-70
2022/03/03 10:54:18;;;;;;;2.27;2.07;;;7.50;43.40;7.00;98315.00;;;;5115522;28;20311;-70
2022/03/03 10:56:47;;;;;;;2.63;2.43;;;7.60;42.70;7.00;98314.00;;;;5115415;28;20201;-71
2022/03/03 10:59:23;;;;;;;2.43;2.33;;;7.70;42.20;7.30;98311.00;;;;5115824;28;20224;-73
2022/03/03 11:01:51;;;;;;;1.83;1.73;;;7.80;42.20;7.20;98317.00;;;;5115338;28;20323;-70
2022/03/03 11:04:20;;;;;;;1.93;1.77;;;7.80;40.80;7.40;98290.00;;;;5115398;28;20286;-70
2022/03/03 11:06:49;;;;;;;2.90;2.60;;;8.00;40.50;7.50;98309.00;;;;5115135;28;20723;-71